createdAt,value
2019-01-28T00:00:24.730Z,5.13
2019-01-28T00:02:55.140Z,5.33
2019-01-28T00:05:25.484Z,4.63
2019-01-28T00:07:55.891Z,5.80
2019-01-28T00:10:26.264Z,4.63
2019-01-28T00:12:59.715Z,5.20
2019-01-28T00:15:32.443Z,4.90
2019-01-28T00:18:02.889Z,4.60
2019-01-28T00:20:34.816Z,5.17
2019-01-28T00:23:05.238Z,5.20
2019-01-28T00:25:35.774Z,5.20
2019-01-28T00:28:06.095Z,5.27
2019-01-28T00:30:36.428Z,4.30
2019-01-28T00:33:06.731Z,4.70
2019-01-28T00:35:37.220Z,4.43
2019-01-28T00:38:07.518Z,4.87
2019-01-28T00:40:37.948Z,4.90
2019-01-28T00:43:08.258Z,5.47
2019-01-28T00:45:38.930Z,5.23
2019-01-28T00:48:09.654Z,5.00
2019-01-28T00:50:40.079Z,4.20
2019-01-28T00:53:10.419Z,5.50
2019-01-28T00:55:40.771Z,5.17
2019-01-28T00:58:11.163Z,4.90
2019-01-28T01:00:42.659Z,4.70
2019-01-28T01:03:13.005Z,4.47
2019-01-28T01:05:43.428Z,4.50
2019-01-28T01:08:13.869Z,4.80
2019-01-28T01:10:44.270Z,4.10
2019-01-28T01:13:14.708Z,4.13
2019-01-28T01:16:06.574Z,4.00
2019-01-28T01:18:39.180Z,3.50
2019-01-28T01:21:09.576Z,3.33
2019-01-28T01:23:39.944Z,3.50
2019-01-28T01:26:10.329Z,3.10
2019-01-28T01:28:40.663Z,3.47
2019-01-28T01:31:10.938Z,2.57
2019-01-28T01:33:41.552Z,2.67
2019-01-28T01:36:11.895Z,2.87
2019-01-28T01:38:42.254Z,2.53
2019-01-28T01:41:12.546Z,2.57
2019-01-28T01:43:42.902Z,2.43
2019-01-28T01:46:13.791Z,2.33
2019-01-28T01:48:44.451Z,2.60
2019-01-28T01:51:14.762Z,2.53
2019-01-28T01:53:45.147Z,2.63
2019-01-28T01:56:15.548Z,2.47
2019-01-28T01:58:45.839Z,2.20
2019-01-28T02:01:16.341Z,2.43
2019-01-28T02:03:48.695Z,2.17
2019-01-28T02:06:19.062Z,2.20
2019-01-28T02:08:49.692Z,2.20
2019-01-28T02:11:20.596Z,2.67
2019-01-28T02:13:51.217Z,2.27
2019-01-28T02:16:21.593Z,2.30
2019-01-28T02:18:51.972Z,2.30
2019-01-28T02:21:22.326Z,2.70
2019-01-28T02:23:53.490Z,2.67
2019-01-28T02:26:24.148Z,2.80
2019-01-28T02:28:54.601Z,3.03
2019-01-28T02:31:25.054Z,2.87
2019-01-28T02:33:56.848Z,2.67
2019-01-28T02:36:27.268Z,3.17
2019-01-28T02:38:57.688Z,2.90
2019-01-28T02:41:28.075Z,3.07
2019-01-28T02:44:00.119Z,2.90
2019-01-28T02:46:33.582Z,3.20
2019-01-28T02:49:03.977Z,3.00
2019-01-28T02:51:36.576Z,3.50
2019-01-28T02:54:09.651Z,3.93
2019-01-28T02:56:40.113Z,3.30
2019-01-28T02:59:10.883Z,4.03
2019-01-28T03:01:41.270Z,4.70
2019-01-28T03:04:11.986Z,4.07
2019-01-28T03:06:42.406Z,3.73
2019-01-28T03:09:12.862Z,4.03
2019-01-28T03:11:43.526Z,4.33
2019-01-28T03:14:13.931Z,4.50
2019-01-28T03:16:46.426Z,3.87
2019-01-28T03:19:19.828Z,4.57
2019-01-28T03:21:50.152Z,3.93
2019-01-28T03:24:20.617Z,4.00
2019-01-28T03:26:51.036Z,3.97
2019-01-28T03:29:21.888Z,3.63
2019-01-28T03:31:52.249Z,3.63
2019-01-28T03:34:22.589Z,3.30
2019-01-28T03:36:54.123Z,3.10
2019-01-28T03:39:24.472Z,3.10
2019-01-28T03:41:59.642Z,3.00
2019-01-28T03:44:32.708Z,2.83
2019-01-28T03:47:05.787Z,2.90
2019-01-28T03:49:37.667Z,3.03
2019-01-28T03:52:12.740Z,2.80
2019-01-28T03:54:43.286Z,3.10
2019-01-28T03:57:14.600Z,3.10
2019-01-28T03:59:45.971Z,3.10
2019-01-28T04:02:16.494Z,3.37
2019-01-28T04:04:47.437Z,3.40
2019-01-28T04:07:17.912Z,2.90
2019-01-28T04:09:49.726Z,3.87
2019-01-28T04:12:20.459Z,2.90
2019-01-28T04:15:12.938Z,3.10
2019-01-28T04:17:43.289Z,3.00
2019-01-28T04:20:16.722Z,2.77
2019-01-28T04:22:47.713Z,2.87
2019-01-28T04:25:18.101Z,2.70
2019-01-28T04:27:48.465Z,2.87
2019-01-28T04:30:22.845Z,2.97
2019-01-28T04:32:53.614Z,2.50
2019-01-28T04:35:24.084Z,2.47
2019-01-28T04:37:54.505Z,2.70
2019-01-28T04:40:24.855Z,2.73
2019-01-28T04:42:56.961Z,3.40
2019-01-28T04:45:27.267Z,3.20
2019-01-28T04:47:57.644Z,3.47
2019-01-28T04:50:28.794Z,3.33
2019-01-28T04:52:59.159Z,3.13
2019-01-28T04:55:29.794Z,3.50
2019-01-28T04:58:00.136Z,3.83
2019-01-28T05:00:30.720Z,3.90
2019-01-28T05:03:01.129Z,3.37
2019-01-28T05:05:31.561Z,3.90
2019-01-28T05:08:03.352Z,3.57
2019-01-28T05:10:34.055Z,3.80
2019-01-28T05:13:04.970Z,3.87
2019-01-28T05:15:40.013Z,3.97
2019-01-28T05:18:10.604Z,3.93
2019-01-28T05:20:43.520Z,3.73
2019-01-28T05:23:13.892Z,3.30
2019-01-28T05:25:44.360Z,3.50
2019-01-28T05:28:14.698Z,3.83
2019-01-28T05:30:45.611Z,3.50
2019-01-28T05:33:16.036Z,3.67
2019-01-28T05:35:46.389Z,3.17
2019-01-28T05:38:16.768Z,3.57
2019-01-28T05:40:47.257Z,3.07
2019-01-28T05:43:17.589Z,3.10
2019-01-28T05:45:48.426Z,3.13
2019-01-28T05:48:18.810Z,3.40
2019-01-28T05:50:49.719Z,3.20
2019-01-28T05:53:20.106Z,3.20
2019-01-28T05:55:50.471Z,3.60
2019-01-28T05:58:20.867Z,3.83
2019-01-28T06:00:54.479Z,3.33
2019-01-28T06:03:27.200Z,4.10
2019-01-28T06:05:57.538Z,4.10
2019-01-28T06:08:28.056Z,4.53
2019-01-28T06:10:58.467Z,3.90
2019-01-28T06:13:28.963Z,4.30
2019-01-28T06:15:59.349Z,4.50
2019-01-28T06:18:29.944Z,5.50
2019-01-28T06:21:00.368Z,5.20
2019-01-28T06:23:30.758Z,5.33
2019-01-28T06:26:01.890Z,4.43
2019-01-28T06:28:33.711Z,5.07
2019-01-28T06:31:04.385Z,5.00
2019-01-28T06:33:37.529Z,5.33
2019-01-28T06:36:10.296Z,4.63
2019-01-28T06:38:41.506Z,4.90
2019-01-28T06:41:14.752Z,4.80
2019-01-28T06:43:45.269Z,4.60
2019-01-28T06:46:17.920Z,5.43
2019-01-28T06:48:48.503Z,4.57
2019-01-28T06:51:19.273Z,4.70
2019-01-28T06:53:50.029Z,4.83
2019-01-28T06:56:21.899Z,4.20
2019-01-28T06:58:52.393Z,4.20
2019-01-28T07:01:28.672Z,4.63
2019-01-28T07:03:59.054Z,5.30
2019-01-28T07:06:29.420Z,4.33
2019-01-28T07:09:00.194Z,5.17
2019-01-28T07:11:31.093Z,5.07
2019-01-28T07:14:01.608Z,5.23
2019-01-28T07:16:32.004Z,4.50
2019-01-28T07:19:02.598Z,6.20
2019-01-28T07:21:33.051Z,5.20
2019-01-28T07:24:03.452Z,5.23
2019-01-28T07:26:33.911Z,5.00
2019-01-28T07:29:04.191Z,4.87
2019-01-28T07:31:34.881Z,4.40
2019-01-28T07:34:05.505Z,5.33
2019-01-28T07:36:35.969Z,4.40
2019-01-28T07:39:08.298Z,4.90
2019-01-28T07:41:38.902Z,5.37
2019-01-28T07:44:09.428Z,5.33
2019-01-28T07:46:39.831Z,5.23
2019-01-28T07:49:10.387Z,6.50
2019-01-28T07:51:40.827Z,6.03
2019-01-28T07:54:11.299Z,6.43
2019-01-28T07:56:41.742Z,6.03
2019-01-28T07:59:12.206Z,6.13
2019-01-28T08:01:51.083Z,6.40
2019-01-28T08:04:21.511Z,5.97
2019-01-28T08:06:59.349Z,6.07
2019-01-28T08:09:25.799Z,6.03
2019-01-28T08:11:56.419Z,6.67
2019-01-28T08:14:27.290Z,6.60
2019-01-28T08:16:57.688Z,7.67
2019-01-28T08:19:28.287Z,7.43
2019-01-28T08:21:58.744Z,8.43
2019-01-28T08:24:29.154Z,7.73
2019-01-28T08:26:59.615Z,7.87
2019-01-28T08:29:29.959Z,8.73
2019-01-28T08:32:02.650Z,7.57
2019-01-28T08:34:33.069Z,8.83
2019-01-28T08:37:05.484Z,9.07
2019-01-28T08:39:35.847Z,9.13
2019-01-28T08:42:06.312Z,10.13
2019-01-28T08:44:36.987Z,9.43
2019-01-28T08:47:08.447Z,9.37
2019-01-28T08:49:41.665Z,8.80
2019-01-28T08:52:17.898Z,9.37
2019-01-28T08:54:48.546Z,9.43
2019-01-28T08:57:18.999Z,8.43
2019-01-28T09:00:00.197Z,8.33
2019-01-28T09:02:30.579Z,7.83
2019-01-28T09:05:01.022Z,7.30
2019-01-28T09:07:37.562Z,6.83
2019-01-28T09:10:09.429Z,6.53
2019-01-28T09:12:39.866Z,6.27
2019-01-28T09:15:11.824Z,6.47
2019-01-28T09:17:42.434Z,6.20
2019-01-28T09:20:18.167Z,5.60
2019-01-28T09:22:50.994Z,5.43
2019-01-28T09:25:21.518Z,5.70
2019-01-28T09:27:52.723Z,4.80
2019-01-28T09:30:25.250Z,5.30
2019-01-28T09:32:57.611Z,5.73
2019-01-28T09:35:28.355Z,5.10
2019-01-28T09:37:59.314Z,4.43
2019-01-28T09:40:33.091Z,4.13
2019-01-28T09:43:06.019Z,4.07
2019-01-28T09:45:41.197Z,3.87
2019-01-28T09:48:14.609Z,3.80
2019-01-28T09:50:45.645Z,4.03
2019-01-28T09:53:16.839Z,3.60
2019-01-28T09:55:47.714Z,3.30
2019-01-28T09:58:20.204Z,3.80
2019-01-28T10:00:51.821Z,2.77
2019-01-28T10:03:22.985Z,2.57
2019-01-28T10:05:54.387Z,2.43
2019-01-28T10:08:27.556Z,2.60
2019-01-28T10:10:58.366Z,2.50
2019-01-28T10:13:31.032Z,2.20
2019-01-28T10:16:01.358Z,2.20
2019-01-28T10:18:41.599Z,2.00
2019-01-28T10:21:08.660Z,3.40
2019-01-28T10:23:39.276Z,2.53
2019-01-28T10:26:12.522Z,2.73
2019-01-28T10:28:43.296Z,2.80
2019-01-28T10:31:17.131Z,3.47
2019-01-28T10:33:54.417Z,3.23
2019-01-28T10:36:26.753Z,3.27
2019-01-28T10:38:57.338Z,3.60
2019-01-28T10:41:27.897Z,3.70
2019-01-28T10:44:10.054Z,3.20
2019-01-28T10:46:39.022Z,3.33
2019-01-28T10:49:09.594Z,4.07
2019-01-28T10:51:40.470Z,4.43
2019-01-28T10:54:12.521Z,3.27
2019-01-28T10:56:43.082Z,3.90
2019-01-28T10:59:13.463Z,3.83
2019-01-28T11:01:45.121Z,3.93
2019-01-28T11:04:15.654Z,4.40
2019-01-28T11:06:46.072Z,4.37
2019-01-28T11:09:16.408Z,4.00
2019-01-28T11:11:46.917Z,3.10
2019-01-28T11:14:20.922Z,3.60
2019-01-28T11:16:51.402Z,3.33
2019-01-28T11:19:22.325Z,3.47
2019-01-28T11:21:52.851Z,3.47
2019-01-28T11:24:23.484Z,3.40
2019-01-28T11:26:54.043Z,3.10
2019-01-28T11:29:24.510Z,3.20
2019-01-28T11:31:55.255Z,3.50
2019-01-28T11:34:26.064Z,2.60
2019-01-28T11:36:59.316Z,3.73
2019-01-28T11:39:30.681Z,2.57
2019-01-28T11:42:02.591Z,3.47
2019-01-28T11:44:33.127Z,3.03
2019-01-28T11:47:06.531Z,2.23
2019-01-28T11:49:39.946Z,2.20
2019-01-28T11:52:10.361Z,3.13
2019-01-28T11:54:43.551Z,2.37
2019-01-28T11:57:14.788Z,2.90
2019-01-28T11:59:45.550Z,3.03
2019-01-28T12:02:16.007Z,2.73
2019-01-28T12:04:46.562Z,3.03
2019-01-28T12:07:19.818Z,2.90
2019-01-28T12:09:53.198Z,2.73
2019-01-28T12:12:23.839Z,2.67
2019-01-28T12:14:54.465Z,2.47
2019-01-28T12:17:24.922Z,2.80
2019-01-28T12:19:55.416Z,2.30
2019-01-28T12:22:26.312Z,2.57
2019-01-28T12:24:57.046Z,2.47
2019-01-28T12:27:33.153Z,2.63
2019-01-28T12:30:06.513Z,2.33
2019-01-28T12:32:36.975Z,2.20
2019-01-28T12:35:08.512Z,2.27
2019-01-28T12:37:44.141Z,1.53
2019-01-28T12:40:14.926Z,1.90
2019-01-28T12:42:46.320Z,1.70
2019-01-28T12:45:18.271Z,1.60
2019-01-28T12:47:48.941Z,1.93
2019-01-28T12:50:20.265Z,1.90
2019-01-28T12:52:52.802Z,2.53
2019-01-28T12:55:23.443Z,2.00
2019-01-28T12:57:53.891Z,1.90
2019-01-28T13:00:29.913Z,1.93
2019-01-28T13:03:00.287Z,1.67
2019-01-28T13:05:30.733Z,2.10
2019-01-28T13:08:01.156Z,1.63
2019-01-28T13:10:32.163Z,1.83
2019-01-28T13:13:02.608Z,1.97
2019-01-28T13:15:33.169Z,1.67
2019-01-28T13:18:03.566Z,1.87
2019-01-28T13:20:34.402Z,1.70
2019-01-28T13:23:05.242Z,1.90
2019-01-28T13:25:35.880Z,1.90
2019-01-28T13:28:06.716Z,1.50
2019-01-28T13:30:38.423Z,2.00
2019-01-28T13:33:11.675Z,1.70
2019-01-28T13:35:42.170Z,1.80
2019-01-28T13:38:13.750Z,1.73
2019-01-28T13:40:45.616Z,2.10
2019-01-28T13:43:16.648Z,1.93
2019-01-28T13:45:47.135Z,2.00
2019-01-28T13:48:17.746Z,1.80
2019-01-28T13:50:48.112Z,1.93
2019-01-28T13:53:18.455Z,2.10
2019-01-28T13:55:48.844Z,1.80
2019-01-28T13:58:19.213Z,1.90
2019-01-28T14:00:49.641Z,2.13
2019-01-28T14:03:20.023Z,1.93
2019-01-28T14:05:50.462Z,2.60
2019-01-28T14:08:20.930Z,2.27
2019-01-28T14:10:51.289Z,2.43
2019-01-28T14:13:21.631Z,2.70
2019-01-28T14:15:52.146Z,2.07
2019-01-28T14:18:22.439Z,2.63
2019-01-28T14:20:53.667Z,2.73
2019-01-28T14:23:24.171Z,2.53
2019-01-28T14:25:55.912Z,2.73
2019-01-28T14:28:26.262Z,2.60
2019-01-28T14:30:56.597Z,2.97
2019-01-28T14:33:27.018Z,3.40
2019-01-28T14:35:57.351Z,2.60
2019-01-28T14:38:27.772Z,2.87
2019-01-28T14:40:58.142Z,2.73
2019-01-28T14:43:28.632Z,2.70
2019-01-28T14:46:00.091Z,2.57
2019-01-28T14:48:30.482Z,2.27
2019-01-28T14:51:00.975Z,2.97
2019-01-28T14:53:31.371Z,3.10
2019-01-28T14:56:01.902Z,3.10
2019-01-28T14:58:33.749Z,2.43
2019-01-28T15:01:04.191Z,2.73
2019-01-28T15:03:36.031Z,2.90
2019-01-28T15:06:06.488Z,3.63
2019-01-28T15:08:36.887Z,3.00
2019-01-28T15:11:07.251Z,3.20
2019-01-28T15:13:37.758Z,2.30
2019-01-28T15:16:09.147Z,2.70
2019-01-28T15:18:40.408Z,3.20
2019-01-28T15:21:10.782Z,3.10
2019-01-28T15:23:41.230Z,4.10
2019-01-28T15:26:11.672Z,3.03
2019-01-28T15:28:42.404Z,2.70
2019-01-28T15:31:12.823Z,2.83
2019-01-28T15:33:43.271Z,2.40
2019-01-28T15:36:13.809Z,3.00
2019-01-28T15:38:45.255Z,3.63
2019-01-28T15:41:15.571Z,2.73
2019-01-28T15:43:46.160Z,2.60
2019-01-28T15:46:16.548Z,2.30
2019-01-28T15:48:48.953Z,2.53
2019-01-28T15:51:19.564Z,2.10
2019-01-28T15:53:50.031Z,2.90
2019-01-28T15:56:21.566Z,2.23
2019-01-28T15:58:51.989Z,2.30
2019-01-28T16:01:22.837Z,3.13
2019-01-28T16:03:56.003Z,2.83
2019-01-28T16:06:26.717Z,2.63
2019-01-28T16:08:57.183Z,2.27
2019-01-28T16:11:27.868Z,2.63
2019-01-28T16:13:58.412Z,2.43
2019-01-28T16:16:29.175Z,3.00
2019-01-28T16:19:01.019Z,2.20
2019-01-28T16:21:31.384Z,1.97
2019-01-28T16:24:04.815Z,2.50
2019-01-28T16:26:35.317Z,2.27
2019-01-28T16:29:05.642Z,2.33
2019-01-28T16:31:36.069Z,2.83
2019-01-28T16:34:06.766Z,2.70
2019-01-28T16:36:37.087Z,2.23
2019-01-28T16:39:09.496Z,2.33
2019-01-28T16:41:40.179Z,2.80
2019-01-28T16:44:13.247Z,2.40
2019-01-28T16:46:43.435Z,2.40
2019-01-28T16:49:13.972Z,2.60
2019-01-28T16:51:49.736Z,2.90
2019-01-28T16:54:20.265Z,2.40
2019-01-28T16:56:50.736Z,2.60
2019-01-28T16:59:21.477Z,2.73
2019-01-28T17:01:52.147Z,2.70
2019-01-28T17:04:22.457Z,2.63
2019-01-28T17:06:56.103Z,3.00
2019-01-28T17:09:26.453Z,2.47
2019-01-28T17:11:56.855Z,3.37
2019-01-28T17:14:27.306Z,2.80
2019-01-28T17:17:01.224Z,3.77
2019-01-28T17:19:31.530Z,3.30
2019-01-28T17:22:03.416Z,3.63
2019-01-28T17:24:33.804Z,2.37
2019-01-28T17:27:04.251Z,3.00
2019-01-28T17:29:34.757Z,2.70
2019-01-28T17:32:05.699Z,2.80
2019-01-28T17:34:36.097Z,2.60
2019-01-28T17:37:06.450Z,3.63
2019-01-28T17:39:36.814Z,3.73
2019-01-28T17:42:10.377Z,2.80
2019-01-28T17:44:40.850Z,3.43
2019-01-28T17:47:11.236Z,2.97
2019-01-28T17:49:41.626Z,2.53
2019-01-28T17:52:11.976Z,2.40
2019-01-28T17:54:42.482Z,2.40
2019-01-28T17:57:12.853Z,2.77
2019-01-28T17:59:43.152Z,2.10
2019-01-28T18:02:15.189Z,2.50
2019-01-28T18:04:45.563Z,2.33
2019-01-28T18:07:16.304Z,2.60
2019-01-28T18:09:46.710Z,2.33
2019-01-28T18:12:17.036Z,3.30
2019-01-28T18:14:48.512Z,2.77
2019-01-28T18:17:21.044Z,3.23
2019-01-28T18:19:54.364Z,2.30
2019-01-28T18:22:26.429Z,2.10
2019-01-28T18:24:56.814Z,2.80
2019-01-28T18:27:28.336Z,2.97
2019-01-28T18:29:58.696Z,2.07
2019-01-28T18:32:29.468Z,3.30
2019-01-28T18:34:59.822Z,2.53
2019-01-28T18:37:30.323Z,2.80
2019-01-28T18:40:00.724Z,2.50
2019-01-28T18:42:31.137Z,2.33
2019-01-28T18:45:02.009Z,3.03
2019-01-28T18:47:32.523Z,2.40
2019-01-28T18:50:02.978Z,2.00
2019-01-28T18:52:33.366Z,2.40
2019-01-28T18:55:03.840Z,1.73
2019-01-28T18:57:34.342Z,2.33
2019-01-28T19:00:08.024Z,1.87
2019-01-28T19:02:39.293Z,2.20
2019-01-28T19:05:11.348Z,2.10
2019-01-28T19:07:49.624Z,2.10
2019-01-28T19:10:40.159Z,2.70
2019-01-28T19:13:35.214Z,1.97
2019-01-28T19:16:23.599Z,2.50
2019-01-28T19:19:03.942Z,1.90
2019-01-28T19:21:45.882Z,2.33
2019-01-28T19:24:16.305Z,2.57
2019-01-28T19:26:46.710Z,2.20
2019-01-28T19:29:17.042Z,1.97
2019-01-28T19:31:47.511Z,2.40
2019-01-28T19:34:20.238Z,2.30
2019-01-28T19:36:53.973Z,2.27
2019-01-28T19:39:27.431Z,3.00
2019-01-28T19:41:58.186Z,2.43
2019-01-28T19:44:30.200Z,2.10
2019-01-28T19:47:00.701Z,2.23
2019-01-28T19:49:31.434Z,2.53
2019-01-28T19:52:02.393Z,2.90
2019-01-28T19:54:33.148Z,2.67
2019-01-28T19:57:03.580Z,1.97
2019-01-28T19:59:34.209Z,2.53
2019-01-28T20:02:05.095Z,2.87
2019-01-28T20:04:36.280Z,2.37
2019-01-28T20:07:06.777Z,2.37
2019-01-28T20:09:37.959Z,1.97
2019-01-28T20:12:08.320Z,2.70
2019-01-28T20:14:38.667Z,2.90
2019-01-28T20:17:09.127Z,3.13
2019-01-28T20:19:39.511Z,2.60
2019-01-28T20:22:09.986Z,2.50
2019-01-28T20:24:40.340Z,3.00
2019-01-28T20:27:10.732Z,2.57
2019-01-28T20:29:41.100Z,2.87
2019-01-28T20:32:11.472Z,3.20
2019-01-28T20:34:43.427Z,3.13
2019-01-28T20:37:14.360Z,2.77
2019-01-28T20:39:44.910Z,3.00
2019-01-28T20:42:15.648Z,3.40
2019-01-28T20:44:46.214Z,3.10
2019-01-28T20:47:32.392Z,3.00
2019-01-28T20:50:02.715Z,3.47
2019-01-28T20:52:33.130Z,3.10
2019-01-28T20:55:03.646Z,3.47
2019-01-28T20:57:39.995Z,3.23
2019-01-28T21:00:16.405Z,2.97
2019-01-28T21:02:46.804Z,3.50
2019-01-28T21:05:20.511Z,3.20
2019-01-28T21:07:50.906Z,3.00
2019-01-28T21:10:21.545Z,3.37
2019-01-28T21:12:53.171Z,3.13
2019-01-28T21:15:26.346Z,2.90
2019-01-28T21:17:57.761Z,3.60
2019-01-28T21:20:29.803Z,3.07
2019-01-28T21:23:00.987Z,3.60
2019-01-28T21:25:33.176Z,3.20
2019-01-28T21:28:06.549Z,3.63
2019-01-28T21:30:37.100Z,3.50
2019-01-28T21:33:12.195Z,3.27
2019-01-28T21:36:00.334Z,3.30
2019-01-28T21:38:49.619Z,4.20
2019-01-28T21:41:22.816Z,3.23
2019-01-28T21:43:53.313Z,3.90
2019-01-28T21:46:24.000Z,3.37
2019-01-28T21:48:54.393Z,3.77
2019-01-28T21:51:24.870Z,3.27
2019-01-28T21:53:55.517Z,2.90
2019-01-28T21:56:25.855Z,3.63
2019-01-28T21:58:56.172Z,3.90
2019-01-28T22:01:26.570Z,3.20
2019-01-28T22:03:56.939Z,3.37
2019-01-28T22:06:27.700Z,2.90
2019-01-28T22:08:58.085Z,3.70
2019-01-28T22:11:28.616Z,3.37
2019-01-28T22:14:01.686Z,3.13
2019-01-28T22:16:33.004Z,2.87
2019-01-28T22:19:03.366Z,3.33
2019-01-28T22:21:33.724Z,3.27
2019-01-28T22:24:04.095Z,3.40
2019-01-28T22:26:34.539Z,3.63
2019-01-28T22:29:04.977Z,2.67
2019-01-28T22:31:35.345Z,3.67
2019-01-28T22:34:05.891Z,3.00
2019-01-28T22:36:36.209Z,3.07
2019-01-28T22:39:09.209Z,3.27
2019-01-28T22:41:40.977Z,3.50
2019-01-28T22:44:11.480Z,3.73
2019-01-28T22:46:42.012Z,2.80
2019-01-28T22:49:16.333Z,3.50
2019-01-28T22:51:48.774Z,3.10
2019-01-28T22:54:22.039Z,3.87
2019-01-28T22:56:52.417Z,3.53
2019-01-28T22:59:22.782Z,3.90
2019-01-28T23:01:53.523Z,3.90
2019-01-28T23:04:24.251Z,3.70
2019-01-28T23:06:54.642Z,4.23
2019-01-28T23:09:26.023Z,4.87
2019-01-28T23:11:58.195Z,5.17
2019-01-28T23:14:28.732Z,4.53
2019-01-28T23:16:59.193Z,5.27
2019-01-28T23:19:29.762Z,5.33
2019-01-28T23:22:00.249Z,5.30
2019-01-28T23:24:30.638Z,5.33
2019-01-28T23:27:01.062Z,5.70
2019-01-28T23:29:31.537Z,5.43
2019-01-28T23:32:01.958Z,5.20
2019-01-28T23:34:35.334Z,5.10
2019-01-28T23:37:05.852Z,5.50
2019-01-28T23:39:36.248Z,5.73
2019-01-28T23:42:06.702Z,5.80
2019-01-28T23:44:37.150Z,5.37
2019-01-28T23:47:07.590Z,5.00
2019-01-28T23:49:37.990Z,5.03
2019-01-28T23:52:08.278Z,5.17
2019-01-28T23:54:38.630Z,6.17
2019-01-28T23:57:08.971Z,5.73
2019-01-28T23:59:39.381Z,5.70
